createdAt,value
2019-05-17T03:01:53.940Z,9.90
2019-05-17T03:04:23.755Z,9.80
2019-05-17T03:06:53.535Z,9.80
2019-05-17T03:09:23.056Z,9.80
2019-05-17T03:11:56.269Z,9.80
2019-05-17T03:14:23.948Z,9.80
2019-05-17T03:16:53.830Z,9.80
2019-05-17T03:19:23.679Z,9.80
2019-05-17T03:21:53.702Z,9.80
2019-05-17T03:24:23.023Z,9.80
2019-05-17T03:26:52.796Z,9.80
2019-05-17T03:29:22.881Z,9.80
2019-05-17T03:31:59.498Z,9.80
2019-05-17T03:34:26.317Z,9.70
2019-05-17T03:36:56.812Z,9.70
2019-05-17T03:39:26.422Z,9.70
2019-05-17T03:41:55.690Z,9.70
2019-05-17T03:44:24.963Z,9.70
2019-05-17T03:46:54.510Z,9.70
2019-05-17T03:49:23.766Z,9.80
2019-05-17T03:51:53.455Z,9.70
2019-05-17T03:54:22.922Z,9.70
2019-05-17T03:56:53.325Z,9.70
2019-05-17T03:59:24.209Z,9.80
2019-05-17T04:01:53.802Z,9.70
2019-05-17T04:04:23.147Z,9.70
2019-05-17T04:06:52.743Z,9.80
2019-05-17T04:09:22.554Z,9.80
2019-05-17T04:11:53.539Z,9.80
2019-05-17T04:14:23.096Z,9.80
2019-05-17T04:16:53.604Z,9.70
2019-05-17T04:19:23.183Z,9.80
2019-05-17T04:21:53.636Z,9.80
2019-05-17T04:24:23.381Z,9.80
2019-05-17T04:26:52.785Z,9.90
2019-05-17T04:29:22.812Z,9.90
2019-05-17T04:31:54.614Z,9.90
2019-05-17T04:34:24.143Z,10.00
2019-05-17T04:36:53.427Z,10.00
2019-05-17T04:39:22.791Z,10.00
2019-05-17T04:41:54.820Z,10.00
2019-05-17T04:44:23.486Z,10.00
2019-05-17T04:46:53.630Z,10.00
2019-05-17T04:49:24.238Z,10.00
2019-05-17T04:51:53.976Z,10.10
2019-05-17T04:54:23.237Z,10.00
2019-05-17T04:56:53.400Z,10.10
2019-05-17T04:59:24.276Z,10.10
2019-05-17T05:01:54.125Z,10.20
2019-05-17T05:04:23.501Z,10.30
2019-05-17T05:06:53.043Z,10.40
2019-05-17T05:09:23.038Z,10.40
2019-05-17T05:12:00.710Z,10.50
2019-05-17T05:14:23.916Z,10.60
2019-05-17T05:16:53.516Z,10.60
2019-05-17T05:19:22.868Z,10.60
2019-05-17T05:21:52.217Z,10.60
2019-05-17T05:24:22.281Z,10.70
2019-05-17T05:26:51.866Z,10.60
2019-05-17T05:29:21.631Z,10.60
2019-05-17T05:31:51.768Z,10.60
2019-05-17T05:34:21.615Z,10.60
2019-05-17T05:36:52.535Z,10.70
2019-05-17T05:39:22.851Z,10.60
2019-05-17T05:42:06.108Z,10.60
2019-05-17T05:44:23.403Z,10.70
2019-05-17T05:46:52.678Z,10.70
2019-05-17T05:49:21.946Z,10.70
2019-05-17T05:51:52.314Z,10.80
2019-05-17T05:54:22.555Z,10.80
2019-05-17T05:56:52.530Z,10.90
2019-05-17T05:59:22.449Z,11.00
2019-05-17T06:01:52.541Z,11.00
2019-05-17T06:04:22.445Z,11.10
2019-05-17T06:06:52.226Z,11.10
2019-05-17T06:09:22.306Z,11.10
2019-05-17T06:11:52.187Z,11.10
2019-05-17T06:14:21.682Z,11.10
2019-05-17T06:16:52.046Z,11.10
2019-05-17T06:19:22.475Z,11.10
2019-05-17T06:21:53.079Z,11.10
2019-05-17T06:24:22.693Z,11.20
2019-05-17T06:26:52.509Z,11.10
2019-05-17T06:29:22.212Z,11.10
2019-05-17T06:31:51.941Z,11.10
2019-05-17T06:34:22.370Z,11.20
2019-05-17T06:36:52.802Z,11.10
2019-05-17T06:39:22.480Z,11.20
2019-05-17T06:41:52.288Z,11.20
2019-05-17T06:44:21.767Z,11.20
2019-05-17T06:46:51.897Z,11.20
2019-05-17T06:49:22.425Z,11.20
2019-05-17T06:51:51.991Z,11.10
2019-05-17T06:54:21.681Z,11.20
2019-05-17T06:56:52.513Z,11.10
2019-05-17T06:59:21.964Z,11.10
2019-05-17T07:01:51.839Z,11.10
2019-05-17T07:04:21.451Z,11.10
2019-05-17T07:07:10.855Z,11.10
2019-05-17T07:09:40.351Z,11.10
2019-05-17T07:12:10.512Z,11.20
2019-05-17T07:14:40.946Z,11.20
2019-05-17T07:17:10.219Z,11.20
2019-05-17T07:19:40.170Z,11.30
2019-05-17T07:22:09.804Z,11.30
2019-05-17T07:24:39.681Z,11.40
2019-05-17T07:27:09.936Z,11.40
2019-05-17T07:29:40.492Z,11.50
2019-05-17T07:32:10.082Z,11.60
2019-05-17T07:34:40.121Z,11.60
2019-05-17T07:37:10.475Z,11.70
2019-05-17T07:39:42.313Z,11.70
2019-05-17T07:42:11.223Z,11.90
2019-05-17T07:44:40.491Z,12.00
2019-05-17T07:47:09.816Z,12.20
2019-05-17T07:49:40.512Z,12.30
2019-05-17T07:52:10.338Z,12.40
2019-05-17T07:54:39.972Z,12.50
2019-05-17T07:57:10.393Z,12.50
2019-05-17T07:59:39.859Z,12.60
2019-05-17T08:02:10.609Z,12.70
2019-05-17T08:04:40.659Z,12.80
2019-05-17T08:07:11.051Z,12.90
2019-05-17T08:09:40.876Z,13.00
2019-05-17T08:12:11.008Z,13.10
2019-05-17T08:14:40.623Z,13.20
2019-05-17T08:17:10.271Z,13.40
2019-05-17T08:19:40.318Z,13.60
2019-05-17T08:22:09.873Z,13.70
2019-05-17T08:24:39.927Z,13.90
2019-05-17T08:27:10.391Z,14.10
2019-05-17T08:29:40.425Z,14.20
2019-05-17T08:32:10.397Z,14.20
2019-05-17T08:34:40.106Z,14.30
2019-05-17T08:37:09.747Z,14.40
2019-05-17T08:39:40.022Z,14.40
2019-05-17T08:42:09.888Z,14.40
2019-05-17T08:44:39.468Z,14.50
2019-05-17T08:47:10.224Z,14.60
2019-05-17T08:49:40.313Z,14.60
2019-05-17T08:52:09.988Z,14.70
2019-05-17T08:54:42.701Z,14.90
2019-05-17T08:57:10.266Z,15.00
2019-05-17T08:59:40.486Z,15.10
2019-05-17T09:02:10.810Z,15.10
2019-05-17T09:04:40.683Z,15.10
2019-05-17T09:07:10.275Z,15.40
2019-05-17T09:09:39.614Z,15.50
2019-05-17T09:12:11.001Z,15.40
2019-05-17T09:14:40.176Z,15.30
2019-05-17T09:17:10.209Z,15.10
2019-05-17T09:19:39.699Z,15.10
2019-05-17T09:22:10.438Z,15.10
2019-05-17T09:24:40.002Z,15.30
2019-05-17T09:27:10.122Z,15.50
2019-05-17T09:29:40.375Z,15.70
2019-05-17T09:32:09.782Z,15.90
2019-05-17T09:34:40.415Z,16.10
2019-05-17T09:37:09.985Z,16.30
2019-05-17T09:39:40.162Z,16.40
2019-05-17T09:42:10.381Z,16.70
2019-05-17T09:44:40.425Z,16.80
2019-05-17T09:47:10.863Z,16.80
2019-05-17T09:49:40.134Z,16.80
2019-05-17T09:52:09.722Z,16.80
2019-05-17T09:54:44.842Z,16.90
2019-05-17T09:57:10.344Z,17.10
2019-05-17T09:59:40.551Z,17.30
2019-05-17T10:02:10.655Z,17.50
2019-05-17T10:04:40.291Z,17.70
2019-05-17T10:07:10.153Z,17.70
2019-05-17T10:09:40.123Z,17.70
2019-05-17T10:12:10.507Z,17.60
2019-05-17T10:14:39.779Z,17.90
2019-05-17T10:17:10.131Z,18.20
2019-05-17T10:19:40.227Z,18.40
2019-05-17T10:22:10.383Z,18.50
2019-05-17T10:24:42.451Z,18.80
2019-05-17T10:27:14.616Z,18.80
2019-05-17T10:29:43.191Z,18.90
2019-05-17T10:32:12.547Z,18.90
2019-05-17T10:34:41.814Z,18.80
2019-05-17T10:37:11.091Z,18.90
2019-05-17T10:39:41.754Z,18.80
2019-05-17T10:42:11.493Z,18.60
2019-05-17T10:44:47.406Z,18.40
2019-05-17T10:47:12.108Z,18.30
2019-05-17T10:49:41.383Z,18.60
2019-05-17T10:52:10.956Z,18.80
2019-05-17T10:54:40.451Z,19.00
2019-05-17T10:57:10.509Z,19.00
2019-05-17T10:59:40.207Z,18.90
2019-05-17T11:02:09.916Z,18.60
2019-05-17T11:04:40.161Z,18.60
2019-05-17T11:07:10.477Z,18.70
2019-05-17T11:09:40.486Z,18.90
2019-05-17T11:12:10.021Z,18.90
2019-05-17T11:14:52.261Z,19.00
2019-05-17T11:17:10.257Z,18.90
2019-05-17T11:19:39.526Z,18.90
2019-05-17T11:22:08.791Z,18.90
2019-05-17T11:24:38.055Z,18.80
2019-05-17T11:27:07.328Z,18.70
2019-05-17T11:29:36.603Z,18.90
2019-05-17T11:32:05.863Z,18.90
2019-05-17T11:34:35.428Z,19.10
2019-05-17T11:37:04.703Z,19.30
2019-05-17T11:39:33.959Z,19.60
2019-05-17T11:42:03.236Z,19.70
2019-05-17T11:44:32.488Z,20.00
2019-05-17T11:47:01.760Z,19.80
2019-05-17T11:49:32.266Z,19.40
2019-05-17T11:52:01.540Z,19.10
2019-05-17T11:54:30.811Z,19.20
2019-05-17T11:57:00.070Z,19.60
2019-05-17T11:59:29.354Z,20.00
2019-05-17T12:01:58.623Z,20.50
2019-05-17T12:04:27.888Z,21.00
2019-05-17T12:06:57.194Z,21.10
2019-05-17T12:09:38.533Z,20.90
2019-05-17T12:12:07.792Z,20.60
2019-05-17T12:14:38.048Z,20.40
2019-05-17T12:17:07.312Z,20.40
2019-05-17T12:19:37.349Z,20.30
2019-05-17T12:22:06.798Z,20.40
2019-05-17T12:24:36.062Z,20.50
2019-05-17T12:27:05.819Z,20.50
2019-05-17T12:29:35.078Z,20.80
2019-05-17T12:32:04.381Z,21.70
2019-05-17T12:34:33.632Z,21.90
2019-05-17T12:37:03.258Z,22.00
2019-05-17T12:39:32.554Z,21.60
2019-05-17T12:42:02.034Z,21.50
2019-05-17T12:44:31.772Z,22.10
2019-05-17T12:47:01.017Z,22.60
2019-05-17T12:49:30.283Z,22.40
2019-05-17T12:51:59.554Z,22.50
2019-05-17T12:54:28.835Z,22.30
2019-05-17T12:56:58.119Z,22.30
2019-05-17T12:59:27.379Z,22.40
2019-05-17T13:01:56.638Z,22.60
2019-05-17T13:04:25.917Z,22.80
2019-05-17T13:06:55.191Z,22.90
2019-05-17T13:09:24.462Z,23.20
2019-05-17T13:11:53.728Z,23.30
2019-05-17T13:14:23.263Z,23.50
2019-05-17T13:16:52.565Z,23.50
2019-05-17T13:19:25.162Z,23.50
2019-05-17T13:21:52.859Z,23.70
2019-05-17T13:24:22.163Z,23.40
2019-05-17T13:26:51.440Z,23.30
2019-05-17T13:29:20.703Z,23.50
2019-05-17T13:31:49.979Z,23.50
2019-05-17T13:34:19.234Z,23.50
2019-05-17T13:36:48.508Z,23.70
2019-05-17T13:39:17.780Z,24.00
2019-05-17T13:41:47.047Z,23.90
2019-05-17T13:44:16.330Z,23.60
2019-05-17T13:46:45.932Z,23.00
2019-05-17T13:49:15.197Z,22.70
2019-05-17T13:51:44.456Z,22.60
2019-05-17T13:54:13.763Z,22.30
2019-05-17T13:56:43.037Z,22.60
2019-05-17T13:59:12.312Z,22.30
2019-05-17T14:01:41.579Z,22.50
2019-05-17T14:04:11.149Z,22.60
2019-05-17T14:06:40.408Z,23.10
2019-05-17T14:09:09.670Z,24.10
2019-05-17T14:11:38.940Z,25.00
2019-05-17T14:14:08.236Z,25.60
2019-05-17T14:16:37.495Z,26.00
2019-05-17T14:19:07.082Z,26.40
2019-05-17T14:21:36.324Z,26.90
2019-05-17T14:24:05.617Z,27.70
2019-05-17T14:26:35.124Z,28.00
2019-05-17T14:29:04.724Z,28.50
2019-05-17T14:31:34.064Z,29.10
2019-05-17T14:34:03.478Z,29.50
2019-05-17T14:36:49.279Z,29.60
2019-05-17T14:39:18.071Z,28.30
2019-05-17T14:41:47.358Z,27.50
2019-05-17T14:44:16.695Z,28.00
2019-05-17T14:46:45.963Z,28.40
2019-05-17T14:49:15.356Z,28.70
2019-05-17T14:51:44.988Z,29.10
2019-05-17T14:54:14.294Z,29.40
2019-05-17T14:56:43.774Z,28.70
2019-05-17T14:59:13.039Z,27.40
2019-05-17T15:01:42.318Z,25.80
2019-05-17T15:04:11.583Z,24.50
2019-05-17T15:06:40.867Z,23.70
2019-05-17T15:09:11.632Z,23.00
2019-05-17T15:11:48.740Z,22.60
2019-05-17T15:14:18.449Z,22.20
2019-05-17T15:16:47.925Z,22.00
2019-05-17T15:19:17.430Z,21.80
2019-05-17T15:21:46.941Z,21.60
2019-05-17T15:24:16.211Z,21.60
2019-05-17T15:26:45.480Z,21.70
2019-05-17T15:29:14.750Z,22.60
2019-05-17T15:31:44.255Z,23.50
2019-05-17T15:34:13.864Z,24.60
2019-05-17T15:36:43.127Z,25.30
2019-05-17T15:39:12.479Z,25.50
2019-05-17T15:41:42.552Z,25.70
2019-05-17T15:44:12.115Z,25.70
2019-05-17T15:46:41.382Z,25.90
2019-05-17T15:49:10.719Z,25.70
2019-05-17T15:51:40.306Z,25.70
2019-05-17T15:54:09.568Z,25.70
2019-05-17T15:56:38.859Z,25.80
2019-05-17T15:59:08.117Z,25.70
2019-05-17T16:01:37.445Z,25.50
2019-05-17T16:04:06.745Z,25.40
2019-05-17T16:06:36.051Z,25.10
2019-05-17T16:09:06.894Z,25.00
2019-05-17T16:11:36.170Z,24.90
2019-05-17T16:14:05.567Z,25.20
2019-05-17T16:16:34.838Z,25.20
2019-05-17T16:19:04.275Z,24.80
2019-05-17T16:21:33.548Z,24.80
2019-05-17T16:24:02.815Z,24.60
2019-05-17T16:26:32.091Z,24.80
2019-05-17T16:29:01.358Z,24.90
2019-05-17T16:31:30.631Z,24.80
2019-05-17T16:33:59.902Z,24.60
2019-05-17T16:36:29.173Z,24.50
2019-05-17T16:38:58.689Z,24.50
2019-05-17T16:41:27.934Z,24.60
2019-05-17T16:43:57.207Z,24.30
2019-05-17T16:46:26.478Z,24.10
2019-05-17T16:48:55.751Z,23.90
2019-05-17T16:51:25.015Z,23.90
2019-05-17T16:53:54.583Z,23.70
2019-05-17T16:56:24.091Z,23.60
2019-05-17T16:58:53.376Z,23.50
2019-05-17T17:01:22.651Z,23.30
2019-05-17T17:03:52.242Z,23.30
2019-05-17T17:06:21.708Z,23.00
2019-05-17T17:08:50.982Z,22.90
2019-05-17T17:11:20.617Z,22.70
2019-05-17T17:13:50.227Z,22.60
2019-05-17T17:16:19.566Z,22.50
2019-05-17T17:18:48.842Z,22.30
2019-05-17T17:21:19.175Z,22.20
2019-05-17T17:23:48.452Z,22.20
2019-05-17T17:26:17.715Z,22.00
2019-05-17T17:28:46.991Z,22.00
2019-05-17T17:31:17.626Z,21.90
2019-05-17T17:33:46.895Z,21.80
2019-05-17T17:36:19.326Z,21.60
2019-05-17T17:38:47.648Z,21.40
2019-05-17T17:41:16.944Z,21.20
2019-05-17T17:43:58.169Z,21.10
2019-05-17T17:46:17.223Z,21.00
2019-05-17T17:48:46.491Z,21.00
2019-05-17T17:51:15.774Z,21.00
2019-05-17T17:53:45.111Z,20.90
2019-05-17T17:56:14.388Z,20.80
2019-05-17T17:58:44.016Z,20.80
2019-05-17T18:01:13.520Z,20.70
2019-05-17T18:03:43.024Z,20.60
2019-05-17T18:06:12.291Z,20.50
2019-05-17T18:08:41.565Z,20.40
2019-05-17T18:11:10.818Z,20.30
2019-05-17T18:13:41.234Z,20.10
2019-05-17T18:16:10.794Z,20.00
2019-05-17T18:18:40.269Z,20.00
2019-05-17T18:21:09.599Z,19.90
2019-05-17T18:23:39.172Z,19.80
2019-05-17T18:26:08.634Z,19.80
2019-05-17T18:28:38.191Z,19.70
2019-05-17T18:31:07.460Z,19.70
2019-05-17T18:33:36.718Z,19.60
2019-05-17T18:36:06.058Z,19.40
2019-05-17T18:38:36.364Z,19.30
2019-05-17T18:41:05.632Z,19.30
2019-05-17T18:43:34.896Z,19.20
2019-05-17T18:46:04.631Z,19.10
2019-05-17T18:48:34.343Z,19.00
2019-05-17T18:51:03.686Z,18.80
2019-05-17T18:53:32.951Z,18.70
2019-05-17T18:56:02.294Z,18.70
2019-05-17T18:58:31.678Z,18.60
2019-05-17T19:01:02.614Z,18.50
2019-05-17T19:03:33.011Z,18.40
2019-05-17T19:06:02.280Z,18.30
2019-05-17T19:08:31.618Z,18.20
2019-05-17T19:11:00.955Z,18.00
2019-05-17T19:13:30.489Z,18.00
2019-05-17T19:15:59.750Z,17.90
2019-05-17T19:18:29.106Z,17.90
2019-05-17T19:20:58.747Z,17.80
2019-05-17T19:23:28.394Z,17.80
2019-05-17T19:25:57.678Z,17.70
2019-05-17T19:28:28.018Z,17.60
2019-05-17T19:30:57.295Z,17.50
2019-05-17T19:33:26.562Z,17.50
2019-05-17T19:35:55.826Z,17.40
2019-05-17T19:38:25.090Z,17.30
2019-05-17T19:40:54.370Z,17.30
2019-05-17T19:43:23.634Z,17.30
2019-05-17T19:45:53.297Z,17.20
2019-05-17T19:48:22.587Z,17.20
2019-05-17T19:50:52.111Z,17.10
2019-05-17T19:53:21.375Z,17.00
2019-05-17T19:55:50.944Z,17.00
2019-05-17T19:58:21.686Z,17.00
2019-05-17T20:00:51.040Z,17.00
2019-05-17T20:03:21.384Z,17.00
2019-05-17T20:05:50.647Z,17.00
2019-05-17T20:08:19.912Z,17.00
2019-05-17T20:10:51.755Z,16.90
2019-05-17T20:13:20.247Z,17.00
2019-05-17T20:15:49.514Z,16.90
2019-05-17T20:18:18.866Z,16.90
2019-05-17T20:20:48.156Z,16.80
2019-05-17T20:23:17.442Z,16.70
2019-05-17T20:25:46.706Z,16.70
2019-05-17T20:28:16.458Z,16.60
2019-05-17T20:30:45.984Z,16.50
2019-05-17T20:33:15.246Z,16.50
2019-05-17T20:35:44.768Z,16.40
2019-05-17T20:38:14.108Z,16.40
2019-05-17T20:40:44.764Z,16.30
2019-05-17T20:43:14.031Z,16.20
2019-05-17T20:45:43.297Z,16.20
2019-05-17T20:48:12.591Z,16.10
2019-05-17T20:50:41.898Z,16.10
2019-05-17T20:53:18.930Z,16.00
2019-05-17T20:55:43.191Z,16.00
2019-05-17T20:58:12.457Z,16.00
2019-05-17T21:00:41.731Z,16.00
2019-05-17T21:03:13.856Z,15.90
2019-05-17T21:05:42.219Z,15.90
2019-05-17T21:08:12.658Z,15.90
2019-05-17T21:10:41.988Z,15.80
2019-05-17T21:13:11.250Z,15.70
2019-05-17T21:15:47.923Z,15.70
2019-05-17T21:18:11.746Z,15.60
2019-05-17T21:20:41.412Z,15.60
2019-05-17T21:23:10.704Z,15.60
2019-05-17T21:25:39.962Z,15.60
2019-05-17T21:28:09.242Z,15.60
2019-05-17T21:30:39.579Z,15.50
2019-05-17T21:33:08.883Z,15.50
2019-05-17T21:35:38.146Z,15.50
2019-05-17T21:38:07.756Z,15.50
2019-05-17T21:40:37.100Z,15.50
2019-05-17T21:43:06.366Z,15.50
2019-05-17T21:45:35.634Z,15.40
2019-05-17T21:48:04.895Z,15.40
2019-05-17T21:50:34.467Z,15.40
2019-05-17T21:53:03.730Z,15.30
2019-05-17T21:55:33.000Z,15.30
2019-05-17T21:58:02.262Z,15.20
2019-05-17T22:00:51.384Z,15.10
2019-05-17T22:03:20.711Z,15.10
2019-05-17T22:05:50.009Z,15.10
2019-05-17T22:08:19.272Z,15.00
2019-05-17T22:10:49.312Z,14.90
2019-05-17T22:13:18.574Z,14.90
2019-05-17T22:15:48.176Z,14.90
2019-05-17T22:18:18.775Z,14.80
2019-05-17T22:20:48.177Z,14.90
2019-05-17T22:23:17.712Z,14.80
2019-05-17T22:25:46.995Z,14.80
2019-05-17T22:28:16.268Z,14.70
2019-05-17T22:30:45.535Z,14.70
2019-05-17T22:33:14.807Z,14.70
2019-05-17T22:35:44.071Z,14.70
2019-05-17T22:38:13.347Z,14.60
2019-05-17T22:40:42.617Z,14.50
2019-05-17T22:43:11.881Z,14.50
2019-05-17T22:45:41.428Z,14.50
2019-05-17T22:48:10.694Z,14.40
2019-05-17T22:50:39.967Z,14.40
2019-05-17T22:53:09.256Z,14.30
2019-05-17T22:55:38.840Z,14.20
2019-05-17T22:58:08.100Z,14.10
2019-05-17T23:00:37.435Z,14.10
2019-05-17T23:03:06.711Z,14.00
2019-05-17T23:05:35.966Z,13.90
2019-05-17T23:08:05.243Z,13.80
2019-05-17T23:10:35.215Z,13.80
2019-05-17T23:13:05.918Z,13.70
2019-05-17T23:15:37.143Z,13.70
2019-05-17T23:18:06.411Z,13.70
2019-05-17T23:20:35.671Z,13.60
2019-05-17T23:23:04.952Z,13.60
2019-05-17T23:25:34.555Z,13.60
2019-05-17T23:28:03.822Z,13.60
2019-05-17T23:30:33.088Z,13.60
2019-05-17T23:33:02.470Z,13.50
2019-05-17T23:35:31.831Z,13.50
2019-05-17T23:38:01.099Z,13.50
2019-05-17T23:40:30.359Z,13.50
2019-05-17T23:42:59.631Z,13.50
2019-05-17T23:45:28.907Z,13.50
2019-05-17T23:47:58.164Z,13.50
2019-05-17T23:50:27.434Z,13.40
2019-05-17T23:52:57.384Z,13.30
2019-05-17T23:55:26.662Z,13.20
2019-05-17T23:57:55.929Z,13.20
